Brisbane - Nearby METAR Reports

YBBN - Brisbane Intl Ar, Australia
Distance from station: NNE 11km
Updated: 28/05/2024 09:00
Light drizzle, Mostly cloudy
Light drizzle, Mostly cloudy
 Wind from S
Wind: S 13 km/h
Temperature: 18°C
Dew Point: 15°C
Humidity: 83%
Barometer: 1027 hPa
Summary: Light Drizzle
Clouds: Mostly cloudy
Visibility: 10 km
Cloud details: Few Clouds 610 m
Mostly cloudy 1219 m
Mostly cloudy 1768 m
2024/05/27 23:00 YBBN 272300Z 17007KT 9999 -DZ FEW020 BKN040 BKN058 18/15 Q1027
YAMB - Amberley, Australia
Distance from station: WSW 42km
Updated: 28/05/2024 09:00
Nearby showers, Mostly cloudy
Nearby showers, Mostly cloudy
 Wind from N
Wind: N 2 km/h
Temperature: 15°C
Dew Point: 15°C
Humidity: 100%
Barometer: 1026 hPa
Summary: Nearby Showers
Clouds: Mostly cloudy
Visibility: 10 km
Cloud details: Few Clouds 91 m
Partly cloudy 823 m
Mostly cloudy 2103 m
2024/05/27 23:00 YAMB 272300Z 35001KT 9999 VCSH FEW003 SCT027 BKN069 15/15 Q1026
 
YBCG - Coolangatta Aws, Australia
Distance from station: SSE 102km
Updated: 28/05/2024 09:00
Overcast
Overcast
 Wind from SSW
Wind: SSW 13 km/h
Temperature: 20°C
Dew Point: 15°C
Humidity: 73%
Barometer: 1026 hPa
Clouds: Overcast
Visibility: 10 km
Cloud details: Overcast 2073 m
2024/05/27 23:00 YBCG 272300Z AUTO 20007KT 9999 // OVC068 20/15 Q1026 RF00.0/000.0